createdAt,value
2022-07-30T00:02:04.336Z,99.30
2022-07-30T00:04:32.470Z,99.30
2022-07-30T00:07:01.249Z,99.30
2022-07-30T00:09:29.356Z,99.30
2022-07-30T00:12:02.315Z,99.30
2022-07-30T00:14:30.740Z,99.40
2022-07-30T00:16:58.921Z,99.30
2022-07-30T00:19:29.856Z,99.30
2022-07-30T00:21:58.162Z,99.10
2022-07-30T00:24:26.000Z,99.10
2022-07-30T00:26:54.010Z,99.00
2022-07-30T00:29:21.956Z,99.00
2022-07-30T00:31:49.800Z,99.00
2022-07-30T00:34:17.643Z,99.30
2022-07-30T00:36:46.808Z,99.00
2022-07-30T00:39:14.633Z,99.10
2022-07-30T00:41:59.254Z,99.10
2022-07-30T00:44:28.024Z,99.10
2022-07-30T00:46:58.436Z,99.00
2022-07-30T00:49:27.081Z,99.10
2022-07-30T00:51:56.441Z,99.10
2022-07-30T00:54:24.275Z,99.10
2022-07-30T00:56:52.582Z,99.10
2022-07-30T00:59:20.389Z,99.10
2022-07-30T01:01:48.283Z,98.90
2022-07-30T01:04:16.132Z,98.80
2022-07-30T01:06:43.981Z,98.80
2022-07-30T01:09:13.313Z,98.80
2022-07-30T01:11:42.511Z,99.00
2022-07-30T01:14:11.166Z,98.80
2022-07-30T01:16:41.319Z,98.90
2022-07-30T01:19:33.954Z,98.90
2022-07-30T01:22:04.489Z,99.00
2022-07-30T01:24:39.246Z,99.00
2022-07-30T01:27:09.620Z,99.00
2022-07-30T01:29:40.058Z,99.00
2022-07-30T01:32:09.856Z,99.00
2022-07-30T01:34:38.816Z,99.00
2022-07-30T01:37:09.533Z,99.10
2022-07-30T01:39:39.674Z,99.10
2022-07-30T01:42:11.554Z,99.10
2022-07-30T01:44:41.628Z,99.10
2022-07-30T01:47:12.444Z,99.20
2022-07-30T01:49:41.679Z,99.20
2022-07-30T01:52:10.586Z,99.30
2022-07-30T01:54:40.280Z,99.40
2022-07-30T01:57:10.214Z,99.40
2022-07-30T01:59:41.330Z,99.50
2022-07-30T02:02:09.194Z,99.50
2022-07-30T02:04:37.062Z,99.50
2022-07-30T02:07:11.402Z,99.50
2022-07-30T02:09:51.734Z,99.50
2022-07-30T02:12:29.756Z,99.50
2022-07-30T02:15:07.588Z,99.50
2022-07-30T02:17:44.925Z,99.50
2022-07-30T02:20:14.689Z,99.40
2022-07-30T02:22:47.069Z,99.40
2022-07-30T02:25:22.134Z,99.30
2022-07-30T02:27:55.598Z,99.20
2022-07-30T02:30:26.854Z,99.20
2022-07-30T02:33:01.023Z,99.10
2022-07-30T02:35:31.477Z,99.30
2022-07-30T02:38:00.996Z,99.10
2022-07-30T02:40:29.561Z,99.00
2022-07-30T02:43:00.489Z,99.00
2022-07-30T02:45:30.377Z,98.90
2022-07-30T02:48:03.039Z,98.90
2022-07-30T02:50:32.799Z,98.90
2022-07-30T02:53:02.421Z,98.80
2022-07-30T02:55:33.403Z,98.90
2022-07-30T02:58:03.407Z,98.90
2022-07-30T03:00:33.006Z,98.90
2022-07-30T03:03:01.824Z,98.80
2022-07-30T03:05:30.241Z,98.90
2022-07-30T03:08:00.675Z,98.80
2022-07-30T03:10:29.563Z,98.90
2022-07-30T03:12:58.560Z,98.90
2022-07-30T03:15:28.868Z,98.80
2022-07-30T03:17:58.821Z,98.90
2022-07-30T03:20:30.458Z,98.80
2022-07-30T03:23:00.292Z,98.90
2022-07-30T03:25:30.560Z,98.80
2022-07-30T03:28:00.358Z,98.80
2022-07-30T03:30:30.215Z,98.70
2022-07-30T03:32:58.870Z,98.80
2022-07-30T03:35:31.134Z,98.60
2022-07-30T03:38:00.969Z,98.70
2022-07-30T03:40:30.658Z,98.70
2022-07-30T03:42:58.915Z,98.70
2022-07-30T03:45:27.023Z,98.60
2022-07-30T03:47:57.392Z,98.70
2022-07-30T03:50:25.335Z,98.60
2022-07-30T03:52:53.954Z,98.60
2022-07-30T03:55:23.385Z,98.70
2022-07-30T03:57:51.709Z,98.70
2022-07-30T04:00:19.579Z,98.70
2022-07-30T04:02:47.945Z,98.70
2022-07-30T04:05:17.993Z,98.80
2022-07-30T04:07:46.193Z,98.80
2022-07-30T04:10:15.382Z,98.90
2022-07-30T04:12:43.644Z,98.90
2022-07-30T04:16:40.583Z,98.90
2022-07-30T04:18:03.649Z,98.90
2022-07-30T04:20:37.773Z,98.90
2022-07-30T04:23:06.304Z,98.90
2022-07-30T04:25:34.852Z,98.90
2022-07-30T04:28:04.069Z,99.00
2022-07-30T04:30:33.284Z,98.90
2022-07-30T04:33:01.433Z,99.00
2022-07-30T04:35:51.139Z,99.30
2022-07-30T04:38:18.905Z,98.90
2022-07-30T04:40:46.854Z,99.00
2022-07-30T04:43:14.838Z,98.90
2022-07-30T04:45:43.270Z,99.00
2022-07-30T04:48:11.100Z,99.00
2022-07-30T04:50:43.574Z,99.00
2022-07-30T04:53:12.173Z,99.00
2022-07-30T04:55:44.191Z,99.10
2022-07-30T04:58:14.376Z,99.00
2022-07-30T05:00:44.241Z,99.10
2022-07-30T05:03:15.343Z,99.00
2022-07-30T05:05:44.051Z,99.00
2022-07-30T05:08:14.168Z,98.90
2022-07-30T05:10:44.804Z,99.30
2022-07-30T05:13:14.065Z,99.00
2022-07-30T05:15:42.210Z,99.00
2022-07-30T05:18:10.630Z,98.90
2022-07-30T05:20:38.705Z,99.00
2022-07-30T05:23:07.027Z,99.00
2022-07-30T05:25:34.937Z,99.10
2022-07-30T05:28:04.209Z,99.10
2022-07-30T05:30:32.042Z,99.10
2022-07-30T05:33:01.370Z,99.00
2022-07-30T05:35:31.755Z,98.90
2022-07-30T05:38:00.395Z,98.80
2022-07-30T05:40:28.407Z,98.80
2022-07-30T05:42:56.263Z,98.80
2022-07-30T05:45:25.408Z,98.80
2022-07-30T05:47:53.229Z,98.80
2022-07-30T05:50:21.130Z,98.80
2022-07-30T05:52:49.198Z,98.90
2022-07-30T05:55:17.152Z,98.70
2022-07-30T05:57:45.219Z,98.80
2022-07-30T06:00:15.040Z,98.80
2022-07-30T06:02:44.210Z,98.60
2022-07-30T06:05:12.284Z,98.60
2022-07-30T06:07:40.256Z,98.60
2022-07-30T06:10:08.727Z,98.60
2022-07-30T06:12:36.553Z,98.60
2022-07-30T06:15:05.214Z,98.60
2022-07-30T06:17:41.382Z,98.70
2022-07-30T06:20:12.728Z,98.70
2022-07-30T06:22:40.707Z,98.80
2022-07-30T06:25:09.910Z,98.80
2022-07-30T06:27:39.894Z,98.80
2022-07-30T06:30:09.606Z,98.70
2022-07-30T06:32:37.674Z,98.80
2022-07-30T06:35:06.105Z,98.70
2022-07-30T06:38:05.596Z,98.60
2022-07-30T06:40:23.217Z,98.70
2022-07-30T06:42:51.023Z,98.70
2022-07-30T06:45:19.109Z,98.60
2022-07-30T06:47:46.958Z,98.70
2022-07-30T06:50:15.646Z,98.80
2022-07-30T06:52:44.805Z,98.90
2022-07-30T06:55:12.685Z,98.90
2022-07-30T06:57:40.560Z,99.00
2022-07-30T07:00:11.476Z,99.00
2022-07-30T07:02:39.360Z,98.90
2022-07-30T07:05:08.401Z,99.10
2022-07-30T07:07:42.498Z,98.80
2022-07-30T07:10:13.496Z,98.80
2022-07-30T07:12:41.557Z,98.80
2022-07-30T07:15:10.384Z,98.90
2022-07-30T07:17:38.238Z,99.00
2022-07-30T07:20:07.025Z,99.00
2022-07-30T07:22:34.860Z,99.20
2022-07-30T07:25:02.716Z,99.10
2022-07-30T07:27:33.006Z,99.00
2022-07-30T07:30:00.918Z,99.00
2022-07-30T07:32:34.018Z,99.00
2022-07-30T07:35:01.902Z,99.00
2022-07-30T07:37:29.858Z,99.10
2022-07-30T07:39:57.698Z,98.50
2022-07-30T07:42:25.508Z,98.40
2022-07-30T07:44:54.647Z,98.40
2022-07-30T07:47:22.505Z,98.50
2022-07-30T07:49:50.318Z,98.30
2022-07-30T07:52:18.169Z,98.20
2022-07-30T07:54:45.960Z,98.20
2022-07-30T07:57:15.271Z,98.30
2022-07-30T07:59:43.255Z,98.50
2022-07-30T08:02:12.492Z,98.40
2022-07-30T08:04:40.360Z,98.30
2022-07-30T08:07:08.198Z,98.20
2022-07-30T08:09:44.355Z,98.10
2022-07-30T08:12:12.900Z,98.20
2022-07-30T08:14:40.777Z,98.20
2022-07-30T08:17:09.191Z,98.00
2022-07-30T08:19:38.638Z,98.10
2022-07-30T08:22:06.492Z,98.00
2022-07-30T08:24:34.540Z,97.90
2022-07-30T08:27:02.646Z,97.80
2022-07-30T08:29:30.896Z,97.80
2022-07-30T08:31:59.056Z,97.70
2022-07-30T08:34:27.171Z,97.60
2022-07-30T08:36:56.400Z,97.50
2022-07-30T08:39:24.244Z,97.10
2022-07-30T08:41:52.134Z,97.00
2022-07-30T08:44:21.832Z,97.00
2022-07-30T08:46:52.342Z,96.70
2022-07-30T08:49:20.665Z,96.70
2022-07-30T08:51:49.610Z,96.40
2022-07-30T08:54:19.889Z,96.30
2022-07-30T08:56:49.440Z,96.00
2022-07-30T08:59:18.426Z,95.60
2022-07-30T09:01:46.345Z,95.10
2022-07-30T09:04:15.299Z,94.80
2022-07-30T09:06:43.156Z,95.00
2022-07-30T09:09:10.973Z,95.20
2022-07-30T09:11:40.141Z,95.10
2022-07-30T09:14:12.362Z,95.20
2022-07-30T09:16:40.695Z,95.30
2022-07-30T09:19:17.448Z,95.00
2022-07-30T09:21:57.571Z,94.50
2022-07-30T09:24:25.851Z,94.60
2022-07-30T09:26:57.297Z,94.80
2022-07-30T09:29:28.004Z,94.30
2022-07-30T09:31:57.995Z,94.30
2022-07-30T09:34:28.275Z,93.90
2022-07-30T09:36:57.421Z,93.90
2022-07-30T09:39:35.866Z,94.20
2022-07-30T09:42:06.148Z,93.90
2022-07-30T09:44:34.061Z,93.50
2022-07-30T09:47:04.369Z,93.60
2022-07-30T09:49:32.872Z,93.70
2022-07-30T09:52:00.823Z,93.30
2022-07-30T09:54:51.674Z,93.40
2022-07-30T10:00:23.585Z,93.30
2022-07-30T10:02:52.574Z,92.90
2022-07-30T10:05:21.410Z,93.00
2022-07-30T10:07:52.164Z,92.50
2022-07-30T10:10:25.228Z,92.50
2022-07-30T10:12:59.015Z,92.10
2022-07-30T10:15:30.013Z,91.80
2022-07-30T10:18:01.775Z,91.90
2022-07-30T10:20:29.956Z,91.80
2022-07-30T10:23:07.813Z,91.80
2022-07-30T10:25:36.892Z,91.70
2022-07-30T10:28:19.036Z,91.60
2022-07-30T10:30:51.239Z,91.50
2022-07-30T10:33:34.655Z,88.90
2022-07-30T10:36:05.165Z,88.20
2022-07-30T10:38:39.060Z,88.50
2022-07-30T10:41:16.825Z,89.00
2022-07-30T10:44:25.519Z,87.80
2022-07-30T10:47:06.550Z,86.90
2022-07-30T10:49:41.048Z,87.10
2022-07-30T10:52:45.521Z,87.30
2022-07-30T10:55:18.386Z,86.90
2022-07-30T10:58:01.359Z,87.20
2022-07-30T11:00:30.373Z,86.80
2022-07-30T11:03:20.511Z,86.50
2022-07-30T11:05:51.372Z,83.90
2022-07-30T11:08:35.698Z,84.50
2022-07-30T11:11:19.800Z,83.10
2022-07-30T11:13:56.017Z,82.90
2022-07-30T11:16:24.929Z,83.50
2022-07-30T11:22:27.438Z,83.00
2022-07-30T11:24:56.810Z,80.70
2022-07-30T11:27:41.790Z,80.80
2022-07-30T11:30:36.073Z,80.30
2022-07-30T11:33:33.147Z,81.10
2022-07-30T11:36:12.404Z,81.30
2022-07-30T11:38:55.595Z,80.70
2022-07-30T11:41:24.810Z,78.70
2022-07-30T11:44:31.148Z,79.00
2022-07-30T11:46:59.843Z,79.70
2022-07-30T11:49:39.739Z,80.10
2022-07-30T11:52:09.463Z,78.90
2022-07-30T11:54:52.865Z,78.40
2022-07-30T11:57:22.450Z,77.20
2022-07-30T11:59:55.344Z,77.10
2022-07-30T12:02:28.090Z,77.60
2022-07-30T12:04:56.111Z,76.80
2022-07-30T12:07:24.369Z,76.50
2022-07-30T12:09:52.221Z,76.90
2022-07-30T12:12:25.325Z,76.50
2022-07-30T12:14:53.183Z,76.10
2022-07-30T12:17:21.057Z,75.70
2022-07-30T12:19:51.457Z,75.50
2022-07-30T12:22:19.681Z,76.20
2022-07-30T12:24:47.541Z,77.00
2022-07-30T12:27:15.369Z,77.30
2022-07-30T12:29:44.677Z,77.50
2022-07-30T12:32:12.555Z,76.80
2022-07-30T12:34:40.392Z,76.50
2022-07-30T12:37:09.874Z,75.30
2022-07-30T12:39:37.862Z,75.10
2022-07-30T12:42:06.032Z,73.80
2022-07-30T12:44:39.207Z,73.20
2022-07-30T12:47:20.868Z,72.30
2022-07-30T12:49:50.435Z,72.70
2022-07-30T12:52:28.616Z,73.20
2022-07-30T12:55:07.483Z,73.20
2022-07-30T12:57:54.995Z,73.30
2022-07-30T13:00:23.920Z,73.50
2022-07-30T13:02:53.365Z,73.20
2022-07-30T13:05:21.624Z,71.80
2022-07-30T13:07:56.680Z,71.20
2022-07-30T13:10:28.646Z,71.00
2022-07-30T13:12:59.198Z,71.20
2022-07-30T13:15:27.353Z,70.60
2022-07-30T13:17:56.498Z,70.70
2022-07-30T13:20:24.341Z,71.40
2022-07-30T13:22:52.157Z,71.80
2022-07-30T13:25:19.997Z,71.30
2022-07-30T13:27:48.628Z,72.00
2022-07-30T13:30:16.478Z,72.00
2022-07-30T13:32:44.376Z,71.00
2022-07-30T13:35:13.728Z,69.50
2022-07-30T13:37:41.517Z,69.60
2022-07-30T13:40:10.869Z,70.30
2022-07-30T13:42:38.713Z,69.90
2022-07-30T13:45:08.263Z,69.30
2022-07-30T13:47:36.131Z,69.10
2022-07-30T13:50:04.127Z,69.80
2022-07-30T13:52:33.300Z,69.40
2022-07-30T13:55:01.218Z,69.00
2022-07-30T13:57:29.101Z,68.80
2022-07-30T13:59:57.159Z,68.80
2022-07-30T14:02:25.001Z,69.00
2022-07-30T14:04:53.173Z,69.50
2022-07-30T14:07:21.041Z,69.90
2022-07-30T14:09:54.265Z,70.00
2022-07-30T14:12:22.436Z,69.40
2022-07-30T14:14:50.344Z,69.50
2022-07-30T14:17:18.183Z,69.90
2022-07-30T14:19:46.008Z,69.00
2022-07-30T14:22:14.066Z,64.00
2022-07-30T14:24:41.887Z,59.30
2022-07-30T14:27:11.054Z,56.10
2022-07-30T14:29:38.927Z,54.50
2022-07-30T14:32:07.164Z,52.40
2022-07-30T14:34:34.982Z,51.90
2022-07-30T14:37:03.428Z,51.10
2022-07-30T14:39:31.555Z,51.00
2022-07-30T14:41:59.361Z,51.70
2022-07-30T14:44:28.645Z,51.40
2022-07-30T14:46:56.469Z,51.80
2022-07-30T14:49:24.541Z,52.40
2022-07-30T14:51:53.526Z,52.70
2022-07-30T14:54:22.350Z,54.30
2022-07-30T14:56:53.632Z,54.50
2022-07-30T14:59:24.221Z,53.30
2022-07-30T15:01:53.438Z,52.70
2022-07-30T15:04:21.459Z,52.20
2022-07-30T15:06:49.314Z,53.80
2022-07-30T15:09:17.114Z,54.00
2022-07-30T15:12:07.619Z,54.10
2022-07-30T15:14:32.713Z,53.50
2022-07-30T15:17:04.264Z,53.50
2022-07-30T15:19:32.714Z,54.10
2022-07-30T15:22:02.358Z,54.80
2022-07-30T15:24:31.073Z,54.00
2022-07-30T15:26:59.046Z,54.10
2022-07-30T15:29:29.247Z,53.50
2022-07-30T15:31:57.205Z,53.20
2022-07-30T15:34:26.386Z,54.20
2022-07-30T15:36:54.794Z,55.40
2022-07-30T15:39:22.668Z,55.10
2022-07-30T15:41:52.507Z,54.50
2022-07-30T15:44:21.416Z,54.30
2022-07-30T15:46:49.788Z,54.70
2022-07-30T15:49:17.689Z,55.10
2022-07-30T15:51:48.717Z,55.70
2022-07-30T15:54:22.662Z,56.00
2022-07-30T15:56:51.591Z,56.60
2022-07-30T15:59:20.599Z,57.10
2022-07-30T16:01:48.485Z,58.10
2022-07-30T16:04:19.598Z,58.50
2022-07-30T16:06:49.278Z,58.10
2022-07-30T16:09:17.461Z,58.00
2022-07-30T16:11:45.320Z,57.80
2022-07-30T16:14:14.865Z,58.10
2022-07-30T16:16:42.757Z,58.40
2022-07-30T16:19:10.685Z,58.30
2022-07-30T16:21:38.569Z,58.40
2022-07-30T16:24:08.708Z,58.70
2022-07-30T16:26:37.228Z,59.50
2022-07-30T16:29:05.357Z,60.10
2022-07-30T16:31:33.260Z,59.90
2022-07-30T16:34:01.495Z,59.30
2022-07-30T16:36:29.471Z,59.20
2022-07-30T16:38:57.441Z,59.30
2022-07-30T16:41:26.613Z,59.30
2022-07-30T16:43:54.498Z,59.70
2022-07-30T16:46:22.413Z,60.60
2022-07-30T16:48:50.506Z,60.90
2022-07-30T16:51:18.600Z,61.20
2022-07-30T16:53:48.052Z,61.70
2022-07-30T16:56:16.134Z,61.00
2022-07-30T16:58:45.638Z,60.90
2022-07-30T17:01:13.666Z,61.20
2022-07-30T17:03:41.601Z,61.30
2022-07-30T17:06:09.417Z,61.20
2022-07-30T17:08:37.324Z,61.70
2022-07-30T17:11:09.049Z,62.20
2022-07-30T17:13:38.236Z,62.70
2022-07-30T17:16:08.201Z,62.80
2022-07-30T17:18:36.030Z,63.20
2022-07-30T17:21:03.869Z,63.70
2022-07-30T17:23:34.202Z,63.50
2022-07-30T17:26:02.023Z,63.70
2022-07-30T17:28:29.838Z,63.90
2022-07-30T17:30:57.709Z,64.10
2022-07-30T17:33:28.860Z,64.30
2022-07-30T17:35:56.731Z,64.30
2022-07-30T17:38:24.826Z,64.10
2022-07-30T17:40:52.631Z,64.20
2022-07-30T17:43:20.528Z,64.40
2022-07-30T17:45:48.366Z,64.60
2022-07-30T17:48:18.030Z,65.00
2022-07-30T17:50:47.212Z,64.80
2022-07-30T17:53:15.035Z,65.30
2022-07-30T17:55:57.425Z,65.50
2022-07-30T17:58:26.085Z,65.50
2022-07-30T18:00:54.042Z,65.60
2022-07-30T18:03:22.006Z,66.20
2022-07-30T18:05:51.248Z,66.50
2022-07-30T18:08:19.075Z,66.90
2022-07-30T18:10:46.890Z,66.80
2022-07-30T18:13:26.168Z,67.00
2022-07-30T18:15:55.140Z,67.20
2022-07-30T18:18:23.001Z,67.00
2022-07-30T18:20:52.220Z,67.80
2022-07-30T18:23:20.203Z,67.10
2022-07-30T18:25:51.984Z,67.40
2022-07-30T18:28:22.260Z,67.50
2022-07-30T18:30:50.422Z,67.90
2022-07-30T18:33:18.395Z,67.70
2022-07-30T18:35:46.254Z,67.80
2022-07-30T18:38:15.497Z,68.20
2022-07-30T18:40:43.602Z,68.80
2022-07-30T18:43:11.442Z,69.30
2022-07-30T18:45:39.246Z,69.60
2022-07-30T18:48:07.660Z,69.80
2022-07-30T18:50:35.539Z,70.20
2022-07-30T18:53:15.277Z,70.10
2022-07-30T18:55:45.911Z,70.30
2022-07-30T18:58:13.773Z,70.30
2022-07-30T19:00:43.860Z,70.50
2022-07-30T19:03:16.432Z,70.60
2022-07-30T19:05:46.882Z,71.00
2022-07-30T19:08:14.728Z,71.00
2022-07-30T19:10:43.665Z,71.20
2022-07-30T19:13:12.882Z,71.50
2022-07-30T19:15:40.665Z,71.90
2022-07-30T19:18:10.184Z,72.20
2022-07-30T19:20:37.988Z,72.40
2022-07-30T19:23:07.896Z,72.60
2022-07-30T19:25:37.246Z,72.80
2022-07-30T19:28:06.092Z,73.20
2022-07-30T19:30:35.471Z,73.30
2022-07-30T19:33:04.439Z,73.60
2022-07-30T19:35:32.276Z,73.80
2022-07-30T19:38:00.137Z,74.20
2022-07-30T19:40:28.020Z,74.30
2022-07-30T19:42:59.856Z,74.30
2022-07-30T19:45:27.942Z,74.40
2022-07-30T19:48:29.215Z,74.60
2022-07-30T19:51:00.838Z,74.80
2022-07-30T19:53:31.220Z,75.10
2022-07-30T19:56:04.440Z,75.20
2022-07-30T19:58:37.302Z,75.30
2022-07-30T20:01:08.510Z,75.60
2022-07-30T20:03:54.432Z,75.90
2022-07-30T20:06:22.269Z,75.90
2022-07-30T20:08:51.433Z,76.20
2022-07-30T20:11:34.690Z,77.10
2022-07-30T20:14:04.703Z,77.80
2022-07-30T20:16:32.609Z,79.10
2022-07-30T20:19:03.206Z,80.30
2022-07-30T20:21:56.434Z,81.20
2022-07-30T20:24:21.413Z,82.40
2022-07-30T20:26:49.212Z,83.40
2022-07-30T20:29:19.269Z,83.90
2022-07-30T20:31:49.931Z,84.30
2022-07-30T20:34:20.727Z,85.00
2022-07-30T20:36:51.622Z,85.60
2022-07-30T20:39:19.856Z,86.60
2022-07-30T20:41:47.966Z,87.40
2022-07-30T20:44:23.659Z,87.90
2022-07-30T20:46:52.729Z,87.90
2022-07-30T20:49:24.308Z,87.90
2022-07-30T20:52:02.882Z,87.70
2022-07-30T20:54:31.105Z,87.70
2022-07-30T20:56:59.993Z,88.30
2022-07-30T20:59:29.840Z,88.10
2022-07-30T21:01:58.786Z,88.70
2022-07-30T21:04:28.966Z,89.20
2022-07-30T21:06:56.808Z,89.70
2022-07-30T21:09:24.945Z,90.00
2022-07-30T21:11:54.860Z,90.10
2022-07-30T21:14:22.856Z,90.30
2022-07-30T21:16:56.192Z,90.70
2022-07-30T21:19:24.152Z,90.90
2022-07-30T21:21:58.328Z,91.10
2022-07-30T21:24:26.111Z,91.10
2022-07-30T21:26:54.698Z,91.00
2022-07-30T21:29:23.273Z,91.10
2022-07-30T21:32:02.602Z,91.10
2022-07-30T21:34:35.976Z,91.20
2022-07-30T21:37:15.577Z,91.10
2022-07-30T21:39:43.750Z,91.10
2022-07-30T21:42:11.742Z,91.00
2022-07-30T21:44:39.734Z,91.10
2022-07-30T21:47:10.356Z,90.90
2022-07-30T21:49:39.177Z,90.60
2022-07-30T21:52:08.400Z,90.40
2022-07-30T21:54:45.117Z,90.30
2022-07-30T21:57:13.504Z,90.30
2022-07-30T21:59:42.016Z,90.20
2022-07-30T22:02:16.020Z,90.00
2022-07-30T22:04:47.464Z,90.10
2022-07-30T22:07:15.480Z,90.20
2022-07-30T22:09:44.609Z,90.30
2022-07-30T22:12:12.926Z,90.80
2022-07-30T22:14:49.384Z,90.50
2022-07-30T22:17:23.670Z,90.60
2022-07-30T22:20:08.588Z,90.70
2022-07-30T22:22:39.437Z,90.70
2022-07-30T22:25:10.737Z,90.90
2022-07-30T22:27:39.816Z,90.90
2022-07-30T22:30:25.360Z,91.00
2022-07-30T22:32:54.337Z,91.00
2022-07-30T22:35:33.377Z,91.50
2022-07-30T22:38:02.255Z,91.50
2022-07-30T22:40:32.315Z,91.70
2022-07-30T22:43:00.145Z,91.90
2022-07-30T22:45:47.592Z,92.10
2022-07-30T22:48:17.262Z,92.30
2022-07-30T22:50:45.132Z,92.50
2022-07-30T22:54:11.755Z,92.60
2022-07-30T22:56:15.517Z,92.70
2022-07-30T22:58:43.882Z,92.80
2022-07-30T23:01:11.815Z,92.90
2022-07-30T23:03:42.014Z,93.00
2022-07-30T23:06:14.768Z,93.10
2022-07-30T23:08:44.146Z,93.20
2022-07-30T23:11:13.280Z,93.60
2022-07-30T23:13:41.804Z,93.40
2022-07-30T23:16:09.888Z,93.50
2022-07-30T23:18:37.692Z,93.60
2022-07-30T23:21:05.659Z,93.60
2022-07-30T23:23:35.629Z,93.70
2022-07-30T23:26:04.241Z,93.80
2022-07-30T23:28:33.415Z,93.90
2022-07-30T23:31:01.304Z,93.90
2022-07-30T23:33:29.196Z,93.90
2022-07-30T23:35:57.011Z,94.20
2022-07-30T23:38:25.277Z,93.90
2022-07-30T23:40:53.132Z,94.00
2022-07-30T23:43:20.964Z,94.00
2022-07-30T23:45:50.093Z,94.00
2022-07-30T23:48:17.992Z,94.00
2022-07-30T23:50:45.890Z,94.10
2022-07-30T23:53:13.710Z,94.20
2022-07-30T23:55:41.637Z,94.30
2022-07-30T23:58:09.523Z,94.40
